sensor_id;sensor_type;location;lat;lon;timestamp;temperature;humidity
12223;DHT22;6174;49.058;8.524;2022-09-12T04:00:42;13.80;99.90
12223;DHT22;6174;49.058;8.524;2022-09-12T04:03:09;13.80;99.90
12223;DHT22;6174;49.058;8.524;2022-09-12T04:05:35;13.70;99.90
12223;DHT22;6174;49.058;8.524;2022-09-12T04:08:02;13.70;99.90
12223;DHT22;6174;49.058;8.524;2022-09-12T04:10:30;13.70;99.90
12223;DHT22;6174;49.058;8.524;2022-09-12T04:12:57;13.70;99.90
12223;DHT22;6174;49.058;8.524;2022-09-12T04:15:23;13.60;99.90
12223;DHT22;6174;49.058;8.524;2022-09-12T04:17:52;13.60;99.90
12223;DHT22;6174;49.058;8.524;2022-09-12T04:20:19;13.60;99.90
12223;DHT22;6174;49.058;8.524;2022-09-12T04:22:45;13.60;99.90
12223;DHT22;6174;49.058;8.524;2022-09-12T04:25:12;13.60;99.90
12223;DHT22;6174;49.058;8.524;2022-09-12T04:27:39;13.70;99.90
12223;DHT22;6174;49.058;8.524;2022-09-12T04:30:07;13.70;99.90
12223;DHT22;6174;49.058;8.524;2022-09-12T04:32:34;13.70;99.90
12223;DHT22;6174;49.058;8.524;2022-09-12T04:35:02;13.70;99.90
12223;DHT22;6174;49.058;8.524;2022-09-12T04:37:29;13.70;99.90
12223;DHT22;6174;49.058;8.524;2022-09-12T04:39:56;13.80;99.90
12223;DHT22;6174;49.058;8.524;2022-09-12T04:42:23;13.70;99.90
12223;DHT22;6174;49.058;8.524;2022-09-12T04:44:50;13.80;99.90
12223;DHT22;6174;49.058;8.524;2022-09-12T04:47:17;13.80;99.90
12223;DHT22;6174;49.058;8.524;2022-09-12T04:49:44;13.80;99.90
12223;DHT22;6174;49.058;8.524;2022-09-12T04:52:12;13.70;99.90
12223;DHT22;6174;49.058;8.524;2022-09-12T04:54:39;13.70;99.90
12223;DHT22;6174;49.058;8.524;2022-09-12T04:57:05;13.70;99.90
12223;DHT22;6174;49.058;8.524;2022-09-12T04:59:32;13.60;99.90
12223;DHT22;6174;49.058;8.524;2022-09-12T05:01:59;13.60;99.90
12223;DHT22;6174;49.058;8.524;2022-09-12T05:04:26;13.60;99.90
12223;DHT22;6174;49.058;8.524;2022-09-12T05:06:53;13.60;99.90
12223;DHT22;6174;49.058;8.524;2022-09-12T05:09:21;13.60;99.90
12223;DHT22;6174;49.058;8.524;2022-09-12T05:11:47;13.60;99.90
12223;DHT22;6174;49.058;8.524;2022-09-12T05:14:14;13.60;99.90
12223;DHT22;6174;49.058;8.524;2022-09-12T05:16:41;13.60;99.90
12223;DHT22;6174;49.058;8.524;2022-09-12T05:19:09;13.60;99.90
12223;DHT22;6174;49.058;8.524;2022-09-12T05:21:36;13.60;99.90
12223;DHT22;6174;49.058;8.524;2022-09-12T05:24:04;13.60;99.90
12223;DHT22;6174;49.058;8.524;2022-09-12T05:26:32;13.60;99.90
12223;DHT22;6174;49.058;8.524;2022-09-12T05:28:59;13.60;99.90
12223;DHT22;6174;49.058;8.524;2022-09-12T05:31:26;13.70;99.90
12223;DHT22;6174;49.058;8.524;2022-09-12T05:33:54;13.80;99.90
12223;DHT22;6174;49.058;8.524;2022-09-12T05:36:22;13.80;99.90
12223;DHT22;6174;49.058;8.524;2022-09-12T05:38:50;13.90;99.90
12223;DHT22;6174;49.058;8.524;2022-09-12T05:41:18;14.00;99.90
12223;DHT22;6174;49.058;8.524;2022-09-12T05:43:50;13.90;99.90
12223;DHT22;6174;49.058;8.524;2022-09-12T05:46:19;13.90;99.90
12223;DHT22;6174;49.058;8.524;2022-09-12T05:48:47;13.90;99.90
12223;DHT22;6174;49.058;8.524;2022-09-12T05:51:16;13.90;99.90
12223;DHT22;6174;49.058;8.524;2022-09-12T05:53:44;14.00;99.90
12223;DHT22;6174;49.058;8.524;2022-09-12T05:56:13;14.00;99.90
12223;DHT22;6174;49.058;8.524;2022-09-12T05:58:41;14.00;99.90
12223;DHT22;6174;49.058;8.524;2022-09-12T06:01:12;14.10;99.90
12223;DHT22;6174;49.058;8.524;2022-09-12T06:03:41;14.10;99.90
12223;DHT22;6174;49.058;8.524;2022-09-12T06:06:09;14.20;99.90
12223;DHT22;6174;49.058;8.524;2022-09-12T06:08:39;14.30;99.90
12223;DHT22;6174;49.058;8.524;2022-09-12T06:11:06;14.30;99.90
12223;DHT22;6174;49.058;8.524;2022-09-12T06:13:35;14.30;99.90
12223;DHT22;6174;49.058;8.524;2022-09-12T06:16:03;14.40;99.90
12223;DHT22;6174;49.058;8.524;2022-09-12T06:18:32;14.50;99.90
12223;DHT22;6174;49.058;8.524;2022-09-12T06:21:01;14.40;99.90
12223;DHT22;6174;49.058;8.524;2022-09-12T06:23:28;14.50;99.90
12223;DHT22;6174;49.058;8.524;2022-09-12T06:25:55;14.50;99.90
12223;DHT22;6174;49.058;8.524;2022-09-12T06:28:21;14.60;99.90
12223;DHT22;6174;49.058;8.524;2022-09-12T06:30:49;14.60;99.90
12223;DHT22;6174;49.058;8.524;2022-09-12T06:33:16;14.70;99.90
12223;DHT22;6174;49.058;8.524;2022-09-12T06:35:44;14.80;99.90
12223;DHT22;6174;49.058;8.524;2022-09-12T06:38:11;14.90;99.90
12223;DHT22;6174;49.058;8.524;2022-09-12T06:40:40;15.00;99.90
12223;DHT22;6174;49.058;8.524;2022-09-12T06:43:08;15.00;99.90
12223;DHT22;6174;49.058;8.524;2022-09-12T06:45:35;15.10;99.90
12223;DHT22;6174;49.058;8.524;2022-09-12T06:48:01;15.30;99.90
12223;DHT22;6174;49.058;8.524;2022-09-12T06:50:29;15.50;99.90
12223;DHT22;6174;49.058;8.524;2022-09-12T06:52:57;15.70;99.90
12223;DHT22;6174;49.058;8.524;2022-09-12T06:55:24;16.00;99.90
12223;DHT22;6174;49.058;8.524;2022-09-12T06:57:50;16.20;99.90
12223;DHT22;6174;49.058;8.524;2022-09-12T07:00:17;16.40;99.90
12223;DHT22;6174;49.058;8.524;2022-09-12T07:02:44;16.60;99.90
12223;DHT22;6174;49.058;8.524;2022-09-12T07:05:11;16.80;99.90
12223;DHT22;6174;49.058;8.524;2022-09-12T07:07:38;17.00;99.90
12223;DHT22;6174;49.058;8.524;2022-09-12T07:10:07;17.20;99.90
12223;DHT22;6174;49.058;8.524;2022-09-12T07:12:36;17.30;99.90
12223;DHT22;6174;49.058;8.524;2022-09-12T07:15:03;17.50;99.90
12223;DHT22;6174;49.058;8.524;2022-09-12T07:17:30;17.70;99.90
12223;DHT22;6174;49.058;8.524;2022-09-12T07:19:57;17.80;99.90
12223;DHT22;6174;49.058;8.524;2022-09-12T07:22:24;17.90;99.90
12223;DHT22;6174;49.058;8.524;2022-09-12T07:24:50;17.90;99.90
12223;DHT22;6174;49.058;8.524;2022-09-12T07:27:19;17.80;99.90
12223;DHT22;6174;49.058;8.524;2022-09-12T07:29:45;17.70;99.90
12223;DHT22;6174;49.058;8.524;2022-09-12T07:32:13;17.60;99.90
12223;DHT22;6174;49.058;8.524;2022-09-12T07:34:40;17.60;99.90
12223;DHT22;6174;49.058;8.524;2022-09-12T07:37:06;17.50;99.90
12223;DHT22;6174;49.058;8.524;2022-09-12T07:39:33;17.40;99.90
12223;DHT22;6174;49.058;8.524;2022-09-12T07:42:00;17.40;99.90
12223;DHT22;6174;49.058;8.524;2022-09-12T07:44:28;17.40;99.90
12223;DHT22;6174;49.058;8.524;2022-09-12T07:46:55;17.40;99.90
12223;DHT22;6174;49.058;8.524;2022-09-12T07:49:21;17.40;99.90
12223;DHT22;6174;49.058;8.524;2022-09-12T07:51:48;17.50;99.90
12223;DHT22;6174;49.058;8.524;2022-09-12T07:54:15;17.50;99.90
12223;DHT22;6174;49.058;8.524;2022-09-12T07:56:42;17.60;99.90
12223;DHT22;6174;49.058;8.524;2022-09-12T07:59:10;17.70;99.90
12223;DHT22;6174;49.058;8.524;2022-09-12T08:01:38;17.70;99.90
12223;DHT22;6174;49.058;8.524;2022-09-12T08:04:06;17.80;99.90
12223;DHT22;6174;49.058;8.524;2022-09-12T08:06:33;17.90;99.90
12223;DHT22;6174;49.058;8.524;2022-09-12T08:09:00;18.00;99.90
12223;DHT22;6174;49.058;8.524;2022-09-12T08:11:28;18.00;99.90
12223;DHT22;6174;49.058;8.524;2022-09-12T08:13:56;18.10;99.90
12223;DHT22;6174;49.058;8.524;2022-09-12T08:16:25;18.20;99.90
12223;DHT22;6174;49.058;8.524;2022-09-12T08:18:54;18.30;99.90
12223;DHT22;6174;49.058;8.524;2022-09-12T08:21:22;18.50;99.90
12223;DHT22;6174;49.058;8.524;2022-09-12T08:23:51;18.60;99.90
12223;DHT22;6174;49.058;8.524;2022-09-12T08:26:19;18.70;99.90
12223;DHT22;6174;49.058;8.524;2022-09-12T08:28:46;18.80;99.90
12223;DHT22;6174;49.058;8.524;2022-09-12T08:31:16;18.80;99.90
12223;DHT22;6174;49.058;8.524;2022-09-12T08:33:43;18.80;99.90
12223;DHT22;6174;49.058;8.524;2022-09-12T08:36:12;18.90;99.90
12223;DHT22;6174;49.058;8.524;2022-09-12T08:38:42;19.10;99.90
12223;DHT22;6174;49.058;8.524;2022-09-12T08:41:13;19.30;99.90
12223;DHT22;6174;49.058;8.524;2022-09-12T08:44:09;19.40;99.90
12223;DHT22;6174;49.058;8.524;2022-09-12T08:46:45;19.40;99.90
12223;DHT22;6174;49.058;8.524;2022-09-12T08:49:18;19.40;99.90
12223;DHT22;6174;49.058;8.524;2022-09-12T08:51:49;19.50;99.90
12223;DHT22;6174;49.058;8.524;2022-09-12T08:54:19;19.50;99.90
12223;DHT22;6174;49.058;8.524;2022-09-12T08:56:46;19.50;99.90
12223;DHT22;6174;49.058;8.524;2022-09-12T08:59:14;19.60;99.90
12223;DHT22;6174;49.058;8.524;2022-09-12T09:01:42;19.60;99.90
12223;DHT22;6174;49.058;8.524;2022-09-12T09:04:22;19.70;99.90
12223;DHT22;6174;49.058;8.524;2022-09-12T09:07:04;19.90;99.90
12223;DHT22;6174;49.058;8.524;2022-09-12T09:09:40;20.00;99.90
12223;DHT22;6174;49.058;8.524;2022-09-12T09:12:16;20.00;99.90
12223;DHT22;6174;49.058;8.524;2022-09-12T09:14:58;20.10;99.90
12223;DHT22;6174;49.058;8.524;2022-09-12T09:17:31;20.10;99.90
12223;DHT22;6174;49.058;8.524;2022-09-12T09:20:04;20.30;99.90
12223;DHT22;6174;49.058;8.524;2022-09-12T09:22:38;20.30;99.90
12223;DHT22;6174;49.058;8.524;2022-09-12T09:25:12;20.30;99.90
12223;DHT22;6174;49.058;8.524;2022-09-12T09:27:43;20.30;99.90
12223;DHT22;6174;49.058;8.524;2022-09-12T09:30:14;20.50;99.90
12223;DHT22;6174;49.058;8.524;2022-09-12T09:32:41;20.50;99.90
12223;DHT22;6174;49.058;8.524;2022-09-12T09:35:17;20.60;99.90
12223;DHT22;6174;49.058;8.524;2022-09-12T09:37:54;20.70;99.90
12223;DHT22;6174;49.058;8.524;2022-09-12T09:40:24;20.70;99.90
12223;DHT22;6174;49.058;8.524;2022-09-12T09:42:57;20.80;99.00
12223;DHT22;6174;49.058;8.524;2022-09-12T09:45:26;20.90;99.70
12223;DHT22;6174;49.058;8.524;2022-09-12T09:47:57;20.80;99.90
12223;DHT22;6174;49.058;8.524;2022-09-12T09:50:26;20.80;99.70
12223;DHT22;6174;49.058;8.524;2022-09-12T09:52:57;20.80;99.90
12223;DHT22;6174;49.058;8.524;2022-09-12T09:55:28;20.90;98.30
12223;DHT22;6174;49.058;8.524;2022-09-12T09:57:56;21.00;98.20
12223;DHT22;6174;49.058;8.524;2022-09-12T10:00:29;21.10;99.00
12223;DHT22;6174;49.058;8.524;2022-09-12T10:03:01;21.20;97.10
12223;DHT22;6174;49.058;8.524;2022-09-12T10:05:29;21.20;97.60
12223;DHT22;6174;49.058;8.524;2022-09-12T10:07:59;21.30;96.70
12223;DHT22;6174;49.058;8.524;2022-09-12T10:10:26;21.30;96.60
12223;DHT22;6174;49.058;8.524;2022-09-12T10:13:07;21.40;97.40
12223;DHT22;6174;49.058;8.524;2022-09-12T10:15:34;21.40;96.20
12223;DHT22;6174;49.058;8.524;2022-09-12T10:18:02;21.50;97.40
12223;DHT22;6174;49.058;8.524;2022-09-12T10:20:31;21.60;96.90
12223;DHT22;6174;49.058;8.524;2022-09-12T10:23:02;21.60;96.90
12223;DHT22;6174;49.058;8.524;2022-09-12T10:25:30;21.70;95.20
12223;DHT22;6174;49.058;8.524;2022-09-12T10:27:58;21.70;94.00
12223;DHT22;6174;49.058;8.524;2022-09-12T10:30:27;21.70;96.20
12223;DHT22;6174;49.058;8.524;2022-09-12T10:32:57;21.80;94.20
12223;DHT22;6174;49.058;8.524;2022-09-12T10:35:31;21.90;92.80
12223;DHT22;6174;49.058;8.524;2022-09-12T10:38:14;22.00;92.20
12223;DHT22;6174;49.058;8.524;2022-09-12T10:40:43;22.10;92.10
12223;DHT22;6174;49.058;8.524;2022-09-12T10:43:16;22.10;91.40
12223;DHT22;6174;49.058;8.524;2022-09-12T10:45:43;22.30;91.10
12223;DHT22;6174;49.058;8.524;2022-09-12T10:48:24;22.40;90.60
12223;DHT22;6174;49.058;8.524;2022-09-12T10:50:54;22.50;91.80
12223;DHT22;6174;49.058;8.524;2022-09-12T10:53:25;22.40;90.20
12223;DHT22;6174;49.058;8.524;2022-09-12T10:56:03;22.50;91.40
12223;DHT22;6174;49.058;8.524;2022-09-12T10:58:52;22.50;92.00
12223;DHT22;6174;49.058;8.524;2022-09-12T11:01:34;22.50;88.50
12223;DHT22;6174;49.058;8.524;2022-09-12T11:04:19;22.50;89.30
12223;DHT22;6174;49.058;8.524;2022-09-12T11:06:57;22.60;90.70
12223;DHT22;6174;49.058;8.524;2022-09-12T11:09:36;22.70;90.40
12223;DHT22;6174;49.058;8.524;2022-09-12T11:12:10;22.80;90.00
12223;DHT22;6174;49.058;8.524;2022-09-12T11:14:54;22.90;89.10
12223;DHT22;6174;49.058;8.524;2022-09-12T11:17:32;23.00;88.10
12223;DHT22;6174;49.058;8.524;2022-09-12T11:20:27;23.00;88.00
12223;DHT22;6174;49.058;8.524;2022-09-12T11:26:03;23.10;85.20
12223;DHT22;6174;49.058;8.524;2022-09-12T11:28:40;23.10;87.40
12223;DHT22;6174;49.058;8.524;2022-09-12T11:31:24;23.10;87.10
12223;DHT22;6174;49.058;8.524;2022-09-12T11:33:59;23.10;85.90
12223;DHT22;6174;49.058;8.524;2022-09-12T11:36:32;23.10;87.30
12223;DHT22;6174;49.058;8.524;2022-09-12T11:39:11;23.10;84.20
12223;DHT22;6174;49.058;8.524;2022-09-12T11:41:41;23.20;83.10
12223;DHT22;6174;49.058;8.524;2022-09-12T11:44:16;23.30;79.70
12223;DHT22;6174;49.058;8.524;2022-09-12T11:46:44;23.40;83.40
12223;DHT22;6174;49.058;8.524;2022-09-12T11:49:26;23.40;82.00
12223;DHT22;6174;49.058;8.524;2022-09-12T11:51:58;23.40;81.00
12223;DHT22;6174;49.058;8.524;2022-09-12T11:54:31;23.50;82.30
12223;DHT22;6174;49.058;8.524;2022-09-12T11:57:07;23.50;82.70
12223;DHT22;6174;49.058;8.524;2022-09-12T11:59:43;23.50;82.10
12223;DHT22;6174;49.058;8.524;2022-09-12T12:02:12;23.70;73.80
12223;DHT22;6174;49.058;8.524;2022-09-12T12:04:48;23.80;73.00
12223;DHT22;6174;49.058;8.524;2022-09-12T12:07:19;23.80;77.40
12223;DHT22;6174;49.058;8.524;2022-09-12T12:09:50;23.70;73.50
12223;DHT22;6174;49.058;8.524;2022-09-12T12:12:22;23.70;75.90
12223;DHT22;6174;49.058;8.524;2022-09-12T12:14:52;23.70;76.00
12223;DHT22;6174;49.058;8.524;2022-09-12T12:17:21;23.80;76.50
12223;DHT22;6174;49.058;8.524;2022-09-12T12:19:56;23.80;77.20
12223;DHT22;6174;49.058;8.524;2022-09-12T12:22:24;23.80;75.20
12223;DHT22;6174;49.058;8.524;2022-09-12T12:25:14;23.80;77.30
12223;DHT22;6174;49.058;8.524;2022-09-12T12:27:53;23.90;80.90
12223;DHT22;6174;49.058;8.524;2022-09-12T12:36:41;24.00;73.90
12223;DHT22;6174;49.058;8.524;2022-09-12T12:48:55;24.10;72.20
12223;DHT22;6174;49.058;8.524;2022-09-12T12:51:38;24.00;71.00
12223;DHT22;6174;49.058;8.524;2022-09-12T12:57:19;24.10;69.30
12223;DHT22;6174;49.058;8.524;2022-09-12T12:59:51;24.20;70.00
12223;DHT22;6174;49.058;8.524;2022-09-12T13:02:23;24.40;68.20
12223;DHT22;6174;49.058;8.524;2022-09-12T13:04:52;24.50;67.10
12223;DHT22;6174;49.058;8.524;2022-09-12T13:07:27;24.50;69.30
12223;DHT22;6174;49.058;8.524;2022-09-12T13:09:56;24.60;71.50
12223;DHT22;6174;49.058;8.524;2022-09-12T13:12:26;24.60;69.20
12223;DHT22;6174;49.058;8.524;2022-09-12T13:14:55;24.60;68.60
12223;DHT22;6174;49.058;8.524;2022-09-12T13:17:26;24.60;71.20
12223;DHT22;6174;49.058;8.524;2022-09-12T13:20:05;24.50;69.90
12223;DHT22;6174;49.058;8.524;2022-09-12T13:22:40;24.60;70.10
12223;DHT22;6174;49.058;8.524;2022-09-12T13:25:26;24.60;69.10
12223;DHT22;6174;49.058;8.524;2022-09-12T13:28:14;24.60;71.40
12223;DHT22;6174;49.058;8.524;2022-09-12T13:30:45;24.70;65.80
12223;DHT22;6174;49.058;8.524;2022-09-12T13:33:18;24.70;64.30
12223;DHT22;6174;49.058;8.524;2022-09-12T13:38:56;24.70;67.80
12223;DHT22;6174;49.058;8.524;2022-09-12T13:41:39;24.60;67.30
12223;DHT22;6174;49.058;8.524;2022-09-12T13:44:12;24.60;68.50
12223;DHT22;6174;49.058;8.524;2022-09-12T13:46:41;24.60;67.20
12223;DHT22;6174;49.058;8.524;2022-09-12T13:49:15;24.60;69.30
12223;DHT22;6174;49.058;8.524;2022-09-12T13:51:52;24.60;65.20
12223;DHT22;6174;49.058;8.524;2022-09-12T13:54:22;24.60;66.40
12223;DHT22;6174;49.058;8.524;2022-09-12T13:56:49;24.60;68.10
12223;DHT22;6174;49.058;8.524;2022-09-12T13:59:15;24.60;64.60
12223;DHT22;6174;49.058;8.524;2022-09-12T14:01:44;24.70;63.40
12223;DHT22;6174;49.058;8.524;2022-09-12T14:04:15;24.80;65.30
12223;DHT22;6174;49.058;8.524;2022-09-12T14:07:10;25.00;63.30
12223;DHT22;6174;49.058;8.524;2022-09-12T14:09:40;24.90;61.70
12223;DHT22;6174;49.058;8.524;2022-09-12T14:12:13;24.90;60.70
12223;DHT22;6174;49.058;8.524;2022-09-12T14:14:47;24.80;62.00
12223;DHT22;6174;49.058;8.524;2022-09-12T14:17:16;24.90;63.70
12223;DHT22;6174;49.058;8.524;2022-09-12T14:19:43;24.90;65.90
12223;DHT22;6174;49.058;8.524;2022-09-12T14:22:12;24.80;64.50
12223;DHT22;6174;49.058;8.524;2022-09-12T14:24:43;24.70;65.10
12223;DHT22;6174;49.058;8.524;2022-09-12T14:27:16;24.60;63.90
12223;DHT22;6174;49.058;8.524;2022-09-12T14:29:43;24.60;63.50
12223;DHT22;6174;49.058;8.524;2022-09-12T14:32:21;24.60;63.00
12223;DHT22;6174;49.058;8.524;2022-09-12T14:35:05;24.50;63.40
12223;DHT22;6174;49.058;8.524;2022-09-12T14:37:34;24.50;63.10
12223;DHT22;6174;49.058;8.524;2022-09-12T14:40:01;24.50;63.30
12223;DHT22;6174;49.058;8.524;2022-09-12T14:42:30;24.50;64.70
12223;DHT22;6174;49.058;8.524;2022-09-12T14:45:00;24.50;64.80
12223;DHT22;6174;49.058;8.524;2022-09-12T14:47:31;24.50;64.30
12223;DHT22;6174;49.058;8.524;2022-09-12T14:50:00;24.40;64.00
12223;DHT22;6174;49.058;8.524;2022-09-12T14:52:29;24.40;65.30
12223;DHT22;6174;49.058;8.524;2022-09-12T14:54:59;24.40;64.70
12223;DHT22;6174;49.058;8.524;2022-09-12T14:57:36;24.30;64.90
12223;DHT22;6174;49.058;8.524;2022-09-12T15:00:22;24.40;62.30
12223;DHT22;6174;49.058;8.524;2022-09-12T15:02:51;24.50;62.80
12223;DHT22;6174;49.058;8.524;2022-09-12T15:05:26;24.40;64.20
12223;DHT22;6174;49.058;8.524;2022-09-12T15:07:56;24.30;64.70
12223;DHT22;6174;49.058;8.524;2022-09-12T15:10:27;24.30;63.80
12223;DHT22;6174;49.058;8.524;2022-09-12T15:13:19;24.30;65.00
12223;DHT22;6174;49.058;8.524;2022-09-12T15:15:52;24.20;66.30
12223;DHT22;6174;49.058;8.524;2022-09-12T15:18:20;24.20;65.30
12223;DHT22;6174;49.058;8.524;2022-09-12T15:20:49;24.10;65.50
12223;DHT22;6174;49.058;8.524;2022-09-12T15:23:25;24.10;65.20
12223;DHT22;6174;49.058;8.524;2022-09-12T15:25:53;24.00;65.10
12223;DHT22;6174;49.058;8.524;2022-09-12T15:28:21;24.00;65.20
12223;DHT22;6174;49.058;8.524;2022-09-12T15:30:51;24.00;65.80
12223;DHT22;6174;49.058;8.524;2022-09-12T15:33:19;24.00;66.30
12223;DHT22;6174;49.058;8.524;2022-09-12T15:35:47;24.00;65.80
12223;DHT22;6174;49.058;8.524;2022-09-12T15:38:14;23.80;66.20
12223;DHT22;6174;49.058;8.524;2022-09-12T15:40:41;23.90;66.30
12223;DHT22;6174;49.058;8.524;2022-09-12T15:43:11;23.80;67.10
12223;DHT22;6174;49.058;8.524;2022-09-12T15:45:40;23.70;68.10
12223;DHT22;6174;49.058;8.524;2022-09-12T15:48:07;23.70;66.70
12223;DHT22;6174;49.058;8.524;2022-09-12T15:50:34;23.60;66.80
12223;DHT22;6174;49.058;8.524;2022-09-12T15:53:01;23.60;67.80
12223;DHT22;6174;49.058;8.524;2022-09-12T15:55:29;23.60;66.70
12223;DHT22;6174;49.058;8.524;2022-09-12T15:57:57;23.50;67.00
12223;DHT22;6174;49.058;8.524;2022-09-12T16:00:25;23.50;67.40
12223;DHT22;6174;49.058;8.524;2022-09-12T16:02:52;23.40;66.90
12223;DHT22;6174;49.058;8.524;2022-09-12T16:05:21;23.40;68.00
12223;DHT22;6174;49.058;8.524;2022-09-12T16:07:50;23.40;67.70
12223;DHT22;6174;49.058;8.524;2022-09-12T16:10:20;23.40;68.00
12223;DHT22;6174;49.058;8.524;2022-09-12T16:12:47;23.40;68.30
12223;DHT22;6174;49.058;8.524;2022-09-12T16:17:47;23.40;68.60
12223;DHT22;6174;49.058;8.524;2022-09-12T16:20:14;23.30;68.90
12223;DHT22;6174;49.058;8.524;2022-09-12T16:22:41;23.20;68.70
12223;DHT22;6174;49.058;8.524;2022-09-12T16:25:08;23.20;67.60
12223;DHT22;6174;49.058;8.524;2022-09-12T16:27:35;23.10;67.90
12223;DHT22;6174;49.058;8.524;2022-09-12T16:30:03;23.10;69.30
12223;DHT22;6174;49.058;8.524;2022-09-12T16:32:30;23.10;70.60
12223;DHT22;6174;49.058;8.524;2022-09-12T16:34:59;23.00;70.20
12223;DHT22;6174;49.058;8.524;2022-09-12T16:37:26;23.00;70.70
12223;DHT22;6174;49.058;8.524;2022-09-12T16:39:52;23.00;71.60
12223;DHT22;6174;49.058;8.524;2022-09-12T16:42:20;23.00;70.90
12223;DHT22;6174;49.058;8.524;2022-09-12T16:44:46;22.90;71.40
12223;DHT22;6174;49.058;8.524;2022-09-12T16:47:13;22.90;71.80
12223;DHT22;6174;49.058;8.524;2022-09-12T16:49:40;22.80;71.90
12223;DHT22;6174;49.058;8.524;2022-09-12T16:52:08;22.80;71.90
12223;DHT22;6174;49.058;8.524;2022-09-12T16:54:37;22.80;72.00
12223;DHT22;6174;49.058;8.524;2022-09-12T16:57:04;22.80;72.60
12223;DHT22;6174;49.058;8.524;2022-09-12T16:59:31;22.70;73.30
12223;DHT22;6174;49.058;8.524;2022-09-12T17:01:57;22.70;73.50
12223;DHT22;6174;49.058;8.524;2022-09-12T17:04:24;22.70;73.60
12223;DHT22;6174;49.058;8.524;2022-09-12T17:06:51;22.70;74.40
12223;DHT22;6174;49.058;8.524;2022-09-12T17:09:19;22.60;75.10
12223;DHT22;6174;49.058;8.524;2022-09-12T17:11:46;22.60;76.00
12223;DHT22;6174;49.058;8.524;2022-09-12T17:14:14;22.50;77.00
12223;DHT22;6174;49.058;8.524;2022-09-12T17:16:43;22.40;77.80
12223;DHT22;6174;49.058;8.524;2022-09-12T17:19:13;22.40;80.20
12223;DHT22;6174;49.058;8.524;2022-09-12T17:21:40;22.30;80.40
12223;DHT22;6174;49.058;8.524;2022-09-12T17:24:07;22.30;83.00
12223;DHT22;6174;49.058;8.524;2022-09-12T17:26:35;22.20;83.90
12223;DHT22;6174;49.058;8.524;2022-09-12T17:29:02;22.20;85.60
12223;DHT22;6174;49.058;8.524;2022-09-12T17:31:29;22.10;87.30
12223;DHT22;6174;49.058;8.524;2022-09-12T17:34:05;22.00;87.50
12223;DHT22;6174;49.058;8.524;2022-09-12T17:36:32;21.90;88.40
12223;DHT22;6174;49.058;8.524;2022-09-12T17:39:02;21.80;89.40
12223;DHT22;6174;49.058;8.524;2022-09-12T17:41:30;21.70;90.20
12223;DHT22;6174;49.058;8.524;2022-09-12T17:43:59;21.70;90.80
12223;DHT22;6174;49.058;8.524;2022-09-12T17:46:30;21.60;91.80
12223;DHT22;6174;49.058;8.524;2022-09-12T17:48:58;21.50;92.50
12223;DHT22;6174;49.058;8.524;2022-09-12T17:51:27;21.40;93.00
12223;DHT22;6174;49.058;8.524;2022-09-12T17:53:56;21.40;94.00
12223;DHT22;6174;49.058;8.524;2022-09-12T17:56:24;21.30;95.00
12223;DHT22;6174;49.058;8.524;2022-09-12T17:58:52;21.20;96.10
12223;DHT22;6174;49.058;8.524;2022-09-12T18:01:20;21.10;97.10
12223;DHT22;6174;49.058;8.524;2022-09-12T18:04:04;21.00;97.50
12223;DHT22;6174;49.058;8.524;2022-09-12T18:06:32;21.00;97.60
12223;DHT22;6174;49.058;8.524;2022-09-12T18:08:59;20.90;97.60
12223;DHT22;6174;49.058;8.524;2022-09-12T18:11:27;20.80;98.60
12223;DHT22;6174;49.058;8.524;2022-09-12T18:13:54;20.80;98.60
12223;DHT22;6174;49.058;8.524;2022-09-12T18:16:24;20.70;99.10
12223;DHT22;6174;49.058;8.524;2022-09-12T18:18:56;20.60;99.90
12223;DHT22;6174;49.058;8.524;2022-09-12T18:21:26;20.60;99.90
12223;DHT22;6174;49.058;8.524;2022-09-12T18:23:54;20.50;99.90
12223;DHT22;6174;49.058;8.524;2022-09-12T18:26:21;20.40;99.90
12223;DHT22;6174;49.058;8.524;2022-09-12T18:28:47;20.40;99.90
12223;DHT22;6174;49.058;8.524;2022-09-12T18:31:19;20.30;98.50
12223;DHT22;6174;49.058;8.524;2022-09-12T18:33:49;20.20;97.70
12223;DHT22;6174;49.058;8.524;2022-09-12T18:36:19;20.30;98.40
12223;DHT22;6174;49.058;8.524;2022-09-12T18:38:47;20.20;98.30
12223;DHT22;6174;49.058;8.524;2022-09-12T18:41:15;20.10;99.00
12223;DHT22;6174;49.058;8.524;2022-09-12T18:43:42;20.00;99.60
12223;DHT22;6174;49.058;8.524;2022-09-12T18:46:11;20.00;99.90
12223;DHT22;6174;49.058;8.524;2022-09-12T18:48:38;19.90;99.70
12223;DHT22;6174;49.058;8.524;2022-09-12T18:51:08;19.80;99.60
12223;DHT22;6174;49.058;8.524;2022-09-12T18:53:36;19.70;99.70
12223;DHT22;6174;49.058;8.524;2022-09-12T18:56:05;19.60;99.90
12223;DHT22;6174;49.058;8.524;2022-09-12T18:58:33;19.50;99.90
12223;DHT22;6174;49.058;8.524;2022-09-12T19:01:16;19.50;99.90
12223;DHT22;6174;49.058;8.524;2022-09-12T19:03:47;19.40;99.80
12223;DHT22;6174;49.058;8.524;2022-09-12T19:06:23;19.40;99.70
12223;DHT22;6174;49.058;8.524;2022-09-12T19:08:51;19.20;99.90
12223;DHT22;6174;49.058;8.524;2022-09-12T19:11:19;19.10;99.90
12223;DHT22;6174;49.058;8.524;2022-09-12T19:13:47;19.00;99.90
12223;DHT22;6174;49.058;8.524;2022-09-12T19:16:16;18.90;99.90
12223;DHT22;6174;49.058;8.524;2022-09-12T19:18:43;19.00;99.90
12223;DHT22;6174;49.058;8.524;2022-09-12T19:21:14;18.90;99.90
12223;DHT22;6174;49.058;8.524;2022-09-12T19:23:43;19.00;99.90
12223;DHT22;6174;49.058;8.524;2022-09-12T19:26:12;18.90;99.90
12223;DHT22;6174;49.058;8.524;2022-09-12T19:28:39;18.90;99.90
12223;DHT22;6174;49.058;8.524;2022-09-12T19:31:07;18.80;99.90
12223;DHT22;6174;49.058;8.524;2022-09-12T19:33:35;18.80;99.90
12223;DHT22;6174;49.058;8.524;2022-09-12T19:36:02;18.70;99.90
12223;DHT22;6174;49.058;8.524;2022-09-12T19:38:29;18.70;99.90
12223;DHT22;6174;49.058;8.524;2022-09-12T19:40:59;18.70;99.90
12223;DHT22;6174;49.058;8.524;2022-09-12T19:43:26;18.60;99.90
12223;DHT22;6174;49.058;8.524;2022-09-12T19:45:53;18.60;99.90
12223;DHT22;6174;49.058;8.524;2022-09-12T19:48:20;18.60;99.90
12223;DHT22;6174;49.058;8.524;2022-09-12T19:50:47;18.60;99.90
12223;DHT22;6174;49.058;8.524;2022-09-12T19:53:14;18.70;99.90
12223;DHT22;6174;49.058;8.524;2022-09-12T19:55:42;18.80;99.90
12223;DHT22;6174;49.058;8.524;2022-09-12T19:58:10;18.90;99.90
12223;DHT22;6174;49.058;8.524;2022-09-12T20:00:37;18.80;99.90
12223;DHT22;6174;49.058;8.524;2022-09-12T20:03:04;18.80;99.90
12223;DHT22;6174;49.058;8.524;2022-09-12T20:05:32;18.80;99.90
12223;DHT22;6174;49.058;8.524;2022-09-12T20:07:59;18.60;99.90
12223;DHT22;6174;49.058;8.524;2022-09-12T20:10:26;18.50;99.90
12223;DHT22;6174;49.058;8.524;2022-09-12T20:12:52;18.30;99.90
12223;DHT22;6174;49.058;8.524;2022-09-12T20:15:20;18.60;99.90
12223;DHT22;6174;49.058;8.524;2022-09-12T20:17:51;18.30;99.90
12223;DHT22;6174;49.058;8.524;2022-09-12T20:20:18;18.30;99.90
12223;DHT22;6174;49.058;8.524;2022-09-12T20:22:48;18.30;99.90
12223;DHT22;6174;49.058;8.524;2022-09-12T20:25:15;18.30;99.90
12223;DHT22;6174;49.058;8.524;2022-09-12T20:27:44;18.30;99.90
12223;DHT22;6174;49.058;8.524;2022-09-12T20:30:11;18.20;99.90